createdAt,value
2017-06-11T00:02:08.132Z,101476.86
2017-06-11T00:04:40.534Z,101471.27
2017-06-11T00:07:12.919Z,101477.26
2017-06-11T00:09:45.309Z,101475.23
2017-06-11T00:12:17.671Z,101469.88
2017-06-11T00:14:50.104Z,101476.66
2017-06-11T00:17:23.347Z,101471.52
2017-06-11T00:19:55.852Z,101470.09
2017-06-11T00:22:29.176Z,101461.13
2017-06-11T00:25:01.689Z,101465.89
2017-06-11T00:27:34.792Z,101463.06
2017-06-11T00:30:07.431Z,101469.98
2017-06-11T00:32:39.835Z,101459.89
2017-06-11T00:35:12.304Z,101465.94
2017-06-11T00:37:44.685Z,101466.45
2017-06-11T00:40:17.148Z,101463.18
2017-06-11T00:42:49.455Z,101465.05
2017-06-11T00:45:21.900Z,101464.61
2017-06-11T00:47:54.383Z,101463.83
2017-06-11T00:50:27.007Z,101466.28
2017-06-11T00:52:59.054Z,101462.66
2017-06-11T00:55:31.459Z,101456.91
2017-06-11T00:58:03.744Z,101449.21
2017-06-11T01:00:37.103Z,101440.95
2017-06-11T01:03:09.518Z,101432.81
2017-06-11T01:05:41.932Z,101437.66
2017-06-11T01:08:14.324Z,101434.09
2017-06-11T01:10:47.667Z,101433.47
2017-06-11T01:13:20.017Z,101435.75
2017-06-11T01:15:53.476Z,101433.41
2017-06-11T01:18:25.888Z,101434.46
2017-06-11T01:20:58.280Z,101432.84
2017-06-11T01:23:30.668Z,101433.87
2017-06-11T01:26:03.152Z,101441.20
2017-06-11T01:28:35.439Z,101439.70
2017-06-11T01:31:07.909Z,101437.45
2017-06-11T01:33:40.252Z,101430.66
2017-06-11T01:36:12.634Z,101433.51
2017-06-11T01:38:45.111Z,101430.50
2017-06-11T01:41:17.584Z,101425.36
2017-06-11T01:43:50.026Z,101418.58
2017-06-11T01:46:22.484Z,101416.67
2017-06-11T01:48:55.020Z,101415.17
2017-06-11T01:51:27.458Z,101410.84
2017-06-11T01:53:59.743Z,101423.80
2017-06-11T01:56:32.207Z,101418.38
2017-06-11T01:59:07.499Z,101424.86
2017-06-11T02:01:39.985Z,101421.56
2017-06-11T02:04:12.315Z,101416.79
2017-06-11T02:06:44.804Z,101415.98
2017-06-11T02:09:17.277Z,101404.20
2017-06-11T02:11:49.920Z,101403.77
2017-06-11T02:14:22.859Z,101409.04
2017-06-11T02:16:55.287Z,101405.30
2017-06-11T02:19:27.680Z,101403.42
2017-06-11T02:22:00.032Z,101403.10
2017-06-11T02:24:32.410Z,101397.74
2017-06-11T02:27:04.824Z,101399.17
2017-06-11T02:29:37.176Z,101395.60
2017-06-11T02:32:09.798Z,101404.40
2017-06-11T02:34:41.806Z,101391.02
2017-06-11T02:37:14.080Z,101391.22
2017-06-11T02:39:46.464Z,101399.00
2017-06-11T02:42:19.973Z,101389.13
2017-06-11T02:44:52.347Z,101397.80
2017-06-11T02:47:24.695Z,101390.50
2017-06-11T02:49:57.115Z,101382.53
2017-06-11T02:52:29.463Z,101388.88
2017-06-11T02:55:01.911Z,101386.23
2017-06-11T02:57:34.222Z,101383.66
2017-06-11T03:00:06.583Z,101385.50
2017-06-11T03:02:38.983Z,101386.19
2017-06-11T03:05:11.403Z,101390.03
2017-06-11T03:07:43.879Z,101384.75
2017-06-11T03:10:16.253Z,101386.65
2017-06-11T03:12:48.572Z,101379.57
2017-06-11T03:15:20.921Z,101387.30
2017-06-11T03:17:53.388Z,101382.42
2017-06-11T03:20:25.711Z,101379.64
2017-06-11T03:22:58.188Z,101378.72
2017-06-11T03:25:30.501Z,101382.55
2017-06-11T03:28:02.986Z,101376.88
2017-06-11T03:30:35.324Z,101382.02
2017-06-11T03:33:07.726Z,101378.52
2017-06-11T03:35:40.179Z,101370.39
2017-06-11T03:38:12.479Z,101370.94
2017-06-11T03:40:44.936Z,101363.29
2017-06-11T03:43:17.357Z,101363.41
2017-06-11T03:45:49.687Z,101360.81
2017-06-11T03:48:22.183Z,101365.59
2017-06-11T03:50:54.432Z,101371.72
2017-06-11T03:53:27.113Z,101371.75
2017-06-11T03:55:59.216Z,101375.30
2017-06-11T03:58:38.556Z,101368.13
2017-06-11T04:01:10.911Z,101375.66
2017-06-11T04:03:43.448Z,101379.83
2017-06-11T04:06:15.828Z,101382.89
2017-06-11T04:08:48.295Z,101377.98
2017-06-11T04:11:20.686Z,101370.83
2017-06-11T04:13:53.863Z,101365.00
2017-06-11T04:16:26.443Z,101359.28
2017-06-11T04:18:58.848Z,101356.52
2017-06-11T04:21:31.231Z,101361.41
2017-06-11T04:24:04.631Z,101359.22
2017-06-11T04:26:37.002Z,101360.61
2017-06-11T04:29:09.392Z,101358.01
2017-06-11T04:31:41.817Z,101361.12
2017-06-11T04:34:14.305Z,101357.52
2017-06-11T04:36:46.627Z,101369.66
2017-06-11T04:39:19.075Z,101371.50
2017-06-11T04:41:51.447Z,101364.52
2017-06-11T04:44:24.915Z,101356.19
2017-06-11T04:46:57.604Z,101357.89
2017-06-11T04:49:29.867Z,101359.95
2017-06-11T04:52:02.212Z,101358.56
2017-06-11T04:54:34.597Z,101361.64
2017-06-11T04:57:06.916Z,101358.80
2017-06-11T04:59:39.370Z,101355.58
2017-06-11T05:02:11.677Z,101352.98
2017-06-11T05:04:44.428Z,101358.94
2017-06-11T05:07:16.585Z,101352.41
2017-06-11T05:09:49.023Z,101358.04
2017-06-11T05:12:21.563Z,101356.94
2017-06-11T05:14:54.083Z,101364.55
2017-06-11T05:17:26.446Z,101358.70
2017-06-11T05:19:58.957Z,101352.66
2017-06-11T05:22:31.359Z,101356.56
2017-06-11T05:25:03.663Z,101351.99
2017-06-11T05:27:42.947Z,101342.02
2017-06-11T05:30:15.669Z,101341.22
2017-06-11T05:32:48.053Z,101340.69
2017-06-11T05:35:20.360Z,101338.64
2017-06-11T05:37:52.703Z,101342.89
2017-06-11T05:40:25.088Z,101338.75
2017-06-11T05:42:57.587Z,101333.85
2017-06-11T05:45:30.044Z,101336.90
2017-06-11T05:48:02.451Z,101336.55
2017-06-11T05:50:34.860Z,101341.89
2017-06-11T05:53:07.271Z,101337.83
2017-06-11T05:55:39.628Z,101339.06
2017-06-11T05:58:11.953Z,101341.52
2017-06-11T06:00:44.351Z,101333.67
2017-06-11T06:03:16.723Z,101335.43
2017-06-11T06:05:49.238Z,101332.51
2017-06-11T06:08:21.635Z,101340.86
2017-06-11T06:10:54.132Z,101335.88
2017-06-11T06:13:26.501Z,101337.22
2017-06-11T06:15:58.893Z,101336.56
2017-06-11T06:18:31.256Z,101345.64
2017-06-11T06:21:03.748Z,101345.87
2017-06-11T06:23:36.220Z,101345.77
2017-06-11T06:26:08.875Z,101343.06
2017-06-11T06:28:40.993Z,101351.83
2017-06-11T06:31:13.464Z,101356.11
2017-06-11T06:33:45.907Z,101346.99
2017-06-11T06:36:18.400Z,101347.64
2017-06-11T06:38:50.780Z,101349.38
2017-06-11T06:41:23.147Z,101355.53
2017-06-11T06:43:55.615Z,101344.28
2017-06-11T06:46:28.079Z,101347.66
2017-06-11T06:49:00.494Z,101355.16
2017-06-11T06:51:32.915Z,101352.03
2017-06-11T06:54:05.355Z,101345.05
2017-06-11T06:56:37.799Z,101340.72
2017-06-11T06:59:10.187Z,101345.54
2017-06-11T07:01:42.675Z,101343.12
2017-06-11T07:04:15.015Z,101340.86
2017-06-11T07:06:47.468Z,101340.41
2017-06-11T07:09:19.660Z,101343.35
2017-06-11T07:11:51.971Z,101341.20
2017-06-11T07:14:24.403Z,101347.38
2017-06-11T07:16:56.880Z,101337.12
2017-06-11T07:19:29.456Z,101335.13
2017-06-11T07:22:01.896Z,101339.48
2017-06-11T07:24:34.271Z,101332.19
2017-06-11T07:27:06.578Z,101339.80
2017-06-11T07:29:38.935Z,101339.38
2017-06-11T07:32:11.399Z,101332.75
2017-06-11T07:34:43.770Z,101332.52
2017-06-11T07:37:16.191Z,101334.34
2017-06-11T07:39:48.590Z,101333.06
2017-06-11T07:42:21.041Z,101326.30
2017-06-11T07:44:53.370Z,101329.38
2017-06-11T07:47:25.875Z,101333.77
2017-06-11T07:49:58.631Z,101337.61
2017-06-11T07:52:31.819Z,101330.78
2017-06-11T07:55:04.203Z,101324.31
2017-06-11T07:57:36.621Z,101309.10
2017-06-11T08:00:09.035Z,101318.03
2017-06-11T08:02:41.542Z,101315.78
2017-06-11T08:05:13.882Z,101316.39
2017-06-11T08:07:46.319Z,101312.83
2017-06-11T08:10:18.656Z,101314.02
2017-06-11T08:12:51.139Z,101314.81
2017-06-11T08:15:23.499Z,101307.53
2017-06-11T08:17:55.908Z,101306.27
2017-06-11T08:20:29.087Z,101303.94
2017-06-11T08:23:01.667Z,101302.84
2017-06-11T08:25:34.115Z,101304.61
2017-06-11T08:28:06.608Z,101306.34
2017-06-11T08:30:38.910Z,101300.47
2017-06-11T08:33:11.768Z,101305.06
2017-06-11T08:35:43.721Z,101297.72
2017-06-11T08:38:16.252Z,101299.20
2017-06-11T08:40:48.851Z,101305.95
2017-06-11T08:43:21.027Z,101300.53
2017-06-11T08:45:53.595Z,101299.08
2017-06-11T08:48:25.948Z,101299.00
2017-06-11T08:50:58.344Z,101299.26
2017-06-11T08:53:30.775Z,101286.69
2017-06-11T08:56:03.218Z,101290.60
2017-06-11T08:58:35.584Z,101290.98
2017-06-11T09:01:07.967Z,101288.22
2017-06-11T09:03:40.467Z,101278.97
2017-06-11T09:06:12.788Z,101274.12
2017-06-11T09:08:46.323Z,101275.38
2017-06-11T09:11:18.814Z,101263.23
2017-06-11T09:13:51.159Z,101261.08
2017-06-11T09:16:23.819Z,101260.84
2017-06-11T09:18:56.224Z,101268.77
2017-06-11T09:21:28.391Z,101262.89
2017-06-11T09:24:00.876Z,101260.29
2017-06-11T09:26:33.327Z,101254.39
2017-06-11T09:29:05.728Z,101253.97
2017-06-11T09:31:38.194Z,101254.98
2017-06-11T09:34:10.705Z,101245.89
2017-06-11T09:36:42.942Z,101241.19
2017-06-11T09:39:15.428Z,101245.85
2017-06-11T09:41:47.836Z,101244.16
2017-06-11T09:44:20.671Z,101241.97
2017-06-11T09:46:52.618Z,101245.78
2017-06-11T09:49:25.059Z,101243.87
2017-06-11T09:51:57.467Z,101255.02
2017-06-11T09:54:30.995Z,101236.72
2017-06-11T09:57:03.356Z,101236.65
2017-06-11T09:59:35.732Z,101226.91
2017-06-11T10:02:08.194Z,101226.33
2017-06-11T10:04:40.704Z,101211.06
2017-06-11T10:07:13.075Z,101219.60
2017-06-11T10:09:45.548Z,101215.64
2017-06-11T10:12:17.854Z,101215.05
2017-06-11T10:14:57.272Z,101215.91
2017-06-11T10:17:30.266Z,101204.58
2017-06-11T10:20:02.114Z,101204.66
2017-06-11T10:22:34.455Z,101199.29
2017-06-11T10:25:06.856Z,101190.14
2017-06-11T10:27:39.232Z,101196.77
2017-06-11T10:30:11.588Z,101188.54
2017-06-11T10:32:44.075Z,101191.91
2017-06-11T10:35:17.558Z,101191.33
2017-06-11T10:37:49.951Z,101176.37
2017-06-11T10:40:22.322Z,101177.03
2017-06-11T10:42:54.818Z,101177.05
2017-06-11T10:45:27.285Z,101181.69
2017-06-11T10:47:59.752Z,101175.48
2017-06-11T10:50:32.140Z,101174.84
2017-06-11T10:53:04.536Z,101179.03
2017-06-11T10:55:37.096Z,101171.03
2017-06-11T10:58:09.410Z,101162.72
2017-06-11T11:00:41.820Z,101171.89
2017-06-11T11:03:14.275Z,101160.44
2017-06-11T11:05:46.891Z,101154.20
2017-06-11T11:08:19.452Z,101159.09
2017-06-11T11:10:51.843Z,101152.77
2017-06-11T11:13:24.215Z,101149.44
2017-06-11T11:15:56.675Z,101146.05
2017-06-11T11:18:29.062Z,101137.66
2017-06-11T11:21:01.523Z,101147.17
2017-06-11T11:23:33.785Z,101138.70
2017-06-11T11:26:06.322Z,101134.88
2017-06-11T11:28:38.755Z,101135.84
2017-06-11T11:31:11.235Z,101126.81
2017-06-11T11:33:43.590Z,101120.23
2017-06-11T11:36:16.092Z,101112.62
2017-06-11T11:38:48.529Z,101111.20
2017-06-11T11:41:20.967Z,101103.12
2017-06-11T11:43:53.279Z,101091.94
2017-06-11T11:46:25.675Z,101087.47
2017-06-11T11:48:57.994Z,101082.30
2017-06-11T11:51:30.510Z,101075.25
2017-06-11T11:54:02.752Z,101069.35
2017-06-11T11:56:35.227Z,101057.92
2017-06-11T11:59:07.630Z,101062.98
2017-06-11T12:01:40.143Z,101055.91
2017-06-11T12:04:12.505Z,101060.13
2017-06-11T12:06:45.208Z,101060.32
2017-06-11T12:09:17.351Z,101049.84
2017-06-11T12:11:49.810Z,101053.97
2017-06-11T12:14:22.102Z,101044.06
2017-06-11T12:16:55.520Z,101050.20
2017-06-11T12:19:27.888Z,101038.14
2017-06-11T12:22:00.325Z,101049.43
2017-06-11T12:24:32.698Z,101046.42
2017-06-11T12:27:05.159Z,101037.98
2017-06-11T12:29:37.579Z,101031.91
2017-06-11T12:32:10.155Z,101035.30
2017-06-11T12:34:42.486Z,101031.27
2017-06-11T12:37:15.175Z,101022.60
2017-06-11T12:39:47.218Z,101011.64
2017-06-11T12:42:19.716Z,101009.16
2017-06-11T12:44:52.220Z,100996.95
2017-06-11T12:47:25.640Z,100996.34
2017-06-11T12:49:57.934Z,100989.44
2017-06-11T12:52:30.470Z,100988.41
2017-06-11T12:55:02.911Z,100986.48
2017-06-11T12:57:35.367Z,100984.81
2017-06-11T13:00:07.848Z,100982.78
2017-06-11T13:02:40.347Z,100983.89
2017-06-11T13:05:12.679Z,100971.30
2017-06-11T13:07:45.011Z,100972.02
2017-06-11T13:10:17.324Z,100977.89
2017-06-11T13:12:50.728Z,100977.91
2017-06-11T13:15:23.119Z,100972.76
2017-06-11T13:17:55.540Z,100961.34
2017-06-11T13:20:28.031Z,100959.63
2017-06-11T13:23:00.434Z,100947.42
2017-06-11T13:25:32.803Z,100944.71
2017-06-11T13:28:05.192Z,100937.88
2017-06-11T13:30:37.474Z,100936.67
2017-06-11T13:33:09.776Z,100925.60
2017-06-11T13:35:42.111Z,100922.16
2017-06-11T13:38:14.503Z,100919.78
2017-06-11T13:40:46.954Z,100912.39
2017-06-11T13:43:20.151Z,100901.36
2017-06-11T13:45:52.919Z,100904.56
2017-06-11T13:48:25.426Z,100896.61
2017-06-11T13:50:57.903Z,100893.31
2017-06-11T13:53:30.383Z,100894.27
2017-06-11T13:56:02.843Z,100881.61
2017-06-11T13:58:35.291Z,100881.06
2017-06-11T14:01:07.691Z,100888.54
2017-06-11T14:03:40.179Z,100883.64
2017-06-11T14:06:12.586Z,100884.91
2017-06-11T14:08:45.018Z,100882.65
2017-06-11T14:11:17.383Z,100881.85
2017-06-11T14:13:49.758Z,100874.11
2017-06-11T14:16:22.095Z,100872.50
2017-06-11T14:18:54.555Z,100871.57
2017-06-11T14:21:32.843Z,100869.45
2017-06-11T14:24:05.220Z,100860.87
2017-06-11T14:26:37.720Z,100854.69
2017-06-11T14:29:09.619Z,100853.70
2017-06-11T14:31:41.414Z,100854.19
2017-06-11T14:34:13.804Z,100860.20
2017-06-11T14:36:46.150Z,100867.73
2017-06-11T14:39:18.555Z,100864.84
2017-06-11T14:41:50.958Z,100868.35
2017-06-11T14:44:23.276Z,100863.25
2017-06-11T14:46:55.622Z,100875.86
2017-06-11T14:49:28.127Z,100882.45
2017-06-11T14:52:00.570Z,100871.91
2017-06-11T14:54:33.051Z,100853.13
2017-06-11T14:57:05.535Z,100855.48
2017-06-11T14:59:38.025Z,100850.72
2017-06-11T15:02:10.398Z,100844.86
2017-06-11T15:04:42.858Z,100847.31
2017-06-11T15:07:15.248Z,100844.23
2017-06-11T15:09:47.641Z,100850.72
2017-06-11T15:12:20.067Z,100844.33
2017-06-11T15:14:52.606Z,100845.37
2017-06-11T15:17:25.044Z,100840.07
2017-06-11T15:19:57.470Z,100831.89
2017-06-11T15:22:29.807Z,100844.88
2017-06-11T15:25:02.252Z,100842.72
2017-06-11T15:27:34.798Z,100840.45
2017-06-11T15:30:07.187Z,100843.31
2017-06-11T15:32:39.519Z,100840.28
2017-06-11T15:35:12.296Z,100839.66
2017-06-11T15:37:44.403Z,100836.59
2017-06-11T15:40:16.824Z,100836.60
2017-06-11T15:42:49.279Z,100841.42
2017-06-11T15:45:21.671Z,100845.27
2017-06-11T15:47:54.140Z,100833.59
2017-06-11T15:50:26.647Z,100828.43
2017-06-11T15:52:58.964Z,100819.52
2017-06-11T15:55:32.039Z,100811.52
2017-06-11T15:58:04.607Z,100819.48
2017-06-11T16:00:37.063Z,100820.78
2017-06-11T16:03:09.403Z,100826.20
2017-06-11T16:05:42.059Z,100825.67
2017-06-11T16:08:14.059Z,100817.05
2017-06-11T16:10:46.540Z,100817.59
2017-06-11T16:13:18.888Z,100808.80
2017-06-11T16:15:51.473Z,100800.52
2017-06-11T16:18:23.644Z,100793.50
2017-06-11T16:20:56.048Z,100789.16
2017-06-11T16:23:28.468Z,100797.66
2017-06-11T16:26:00.795Z,100794.99
2017-06-11T16:28:33.707Z,100794.68
2017-06-11T16:31:06.384Z,100780.41
2017-06-11T16:33:39.078Z,100772.56
2017-06-11T16:36:11.436Z,100775.83
2017-06-11T16:38:43.880Z,100767.11
2017-06-11T16:41:16.323Z,100779.28
2017-06-11T16:43:48.711Z,100767.80
2017-06-11T16:46:20.948Z,100761.90
2017-06-11T16:48:53.383Z,100762.55
2017-06-11T16:51:25.867Z,100773.30
2017-06-11T16:53:58.325Z,100771.16
2017-06-11T16:56:31.167Z,100777.56
2017-06-11T16:59:03.122Z,100775.92
2017-06-11T17:01:35.596Z,100781.59
2017-06-11T17:04:08.038Z,100788.77
2017-06-11T17:06:40.404Z,100782.30
2017-06-11T17:09:12.692Z,100785.22
2017-06-11T17:11:45.102Z,100787.58
2017-06-11T17:14:17.676Z,100794.16
2017-06-11T17:16:49.863Z,100800.44
2017-06-11T17:19:22.196Z,100800.27
2017-06-11T17:21:54.518Z,100807.91
2017-06-11T17:24:27.000Z,100815.45
2017-06-11T17:26:59.392Z,100820.52
2017-06-11T17:29:31.707Z,100829.45
2017-06-11T17:32:04.210Z,100835.53
2017-06-11T17:34:36.651Z,100831.09
2017-06-11T17:37:09.071Z,100824.81
2017-06-11T17:39:41.451Z,100823.94
2017-06-11T17:42:13.903Z,100825.71
2017-06-11T17:44:47.021Z,100819.22
2017-06-11T17:47:19.674Z,100822.53
2017-06-11T17:49:52.098Z,100825.25
2017-06-11T17:52:24.450Z,100820.36
2017-06-11T17:54:56.686Z,100813.83
2017-06-11T17:57:29.167Z,100810.42
2017-06-11T18:00:01.726Z,100807.73
2017-06-11T18:02:35.032Z,100802.22
2017-06-11T18:05:07.538Z,100787.86
2017-06-11T18:07:40.174Z,100766.34
2017-06-11T18:10:13.508Z,100751.54
2017-06-11T18:12:45.928Z,100747.30
2017-06-11T18:15:18.587Z,100754.91
2017-06-11T18:17:50.642Z,100751.17
2017-06-11T18:20:22.988Z,100749.03
2017-06-11T18:22:55.408Z,100738.93
2017-06-11T18:25:27.811Z,100734.58
2017-06-11T18:28:00.471Z,100740.88
2017-06-11T18:30:32.951Z,100732.55
2017-06-11T18:33:05.302Z,100708.12
2017-06-11T18:35:37.568Z,100696.08
2017-06-11T18:38:10.043Z,100689.83
2017-06-11T18:40:42.391Z,100683.02
2017-06-11T18:43:14.786Z,100672.84
2017-06-11T18:45:47.299Z,100666.66
2017-06-11T18:48:19.714Z,100666.83
2017-06-11T18:50:52.067Z,100663.88
2017-06-11T18:53:24.579Z,100656.23
2017-06-11T18:55:57.019Z,100651.38
2017-06-11T18:58:29.498Z,100644.79
2017-06-11T19:01:01.799Z,100632.05
2017-06-11T19:03:34.248Z,100635.62
2017-06-11T19:06:06.603Z,100627.55
2017-06-11T19:08:39.011Z,100618.16
2017-06-11T19:11:11.369Z,100614.80
2017-06-11T19:13:43.831Z,100614.77
2017-06-11T19:16:16.175Z,100615.89
2017-06-11T19:18:48.603Z,100604.07
2017-06-11T19:21:21.004Z,100599.63
2017-06-11T19:23:53.404Z,100608.48
2017-06-11T19:26:25.690Z,100612.06
2017-06-11T19:28:58.110Z,100622.08
2017-06-11T19:31:30.471Z,100615.27
2017-06-11T19:34:02.965Z,100620.98
2017-06-11T19:36:35.295Z,100623.78
2017-06-11T19:39:07.754Z,100628.91
2017-06-11T19:41:40.259Z,100638.03
2017-06-11T19:44:12.699Z,100640.89
2017-06-11T19:46:45.119Z,100625.45
2017-06-11T19:49:17.724Z,100617.20
2017-06-11T19:51:50.156Z,100621.30
2017-06-11T19:54:22.522Z,100619.84
2017-06-11T19:56:55.616Z,100638.80
2017-06-11T19:59:27.519Z,100634.22
2017-06-11T20:01:59.968Z,100629.50
2017-06-11T20:04:32.326Z,100637.95
2017-06-11T20:07:04.799Z,100633.85
2017-06-11T20:09:37.199Z,100636.59
2017-06-11T20:12:09.560Z,100642.45
2017-06-11T20:14:42.029Z,100640.06
2017-06-11T20:17:14.475Z,100643.43
2017-06-11T20:19:46.743Z,100655.70
2017-06-11T20:22:19.179Z,100645.92
2017-06-11T20:24:52.716Z,100653.44
2017-06-11T20:27:25.148Z,100654.66
2017-06-11T20:29:57.612Z,100649.98
2017-06-11T20:32:29.980Z,100649.09
2017-06-11T20:35:02.552Z,100646.11
2017-06-11T20:37:35.104Z,100642.64
2017-06-11T20:40:07.479Z,100644.09
2017-06-11T20:42:39.877Z,100649.08
2017-06-11T20:45:13.091Z,100648.30
2017-06-11T20:47:45.463Z,100653.73
2017-06-11T20:50:17.947Z,100649.00
2017-06-11T20:52:50.416Z,100654.69
2017-06-11T20:55:23.908Z,100639.56
2017-06-11T20:57:56.436Z,100642.36
2017-06-11T21:00:28.723Z,100648.23
2017-06-11T21:06:00.932Z,100634.50
2017-06-11T21:08:33.277Z,100644.39
2017-06-11T21:11:05.770Z,100648.17
2017-06-11T21:13:38.135Z,100642.89
2017-06-11T21:16:10.599Z,100638.64
2017-06-11T21:18:42.858Z,100643.20
2017-06-11T21:21:15.163Z,100646.28
2017-06-11T21:23:47.602Z,100658.26
2017-06-11T21:26:19.879Z,100650.58
2017-06-11T21:28:52.305Z,100667.41
2017-06-11T21:31:24.783Z,100651.52
2017-06-11T21:33:57.114Z,100652.98
2017-06-11T21:36:29.411Z,100653.39
2017-06-11T21:39:01.820Z,100650.50
2017-06-11T21:41:34.215Z,100645.19
2017-06-11T21:44:06.203Z,100650.72
2017-06-11T21:46:38.670Z,100654.62
2017-06-11T21:49:10.997Z,100661.27
2017-06-11T21:51:43.519Z,100668.59
2017-06-11T21:54:15.716Z,100666.73
2017-06-11T21:56:48.009Z,100662.14
2017-06-11T21:59:20.384Z,100643.10
2017-06-11T22:01:53.188Z,100623.57
2017-06-11T22:04:25.200Z,100637.00
2017-06-11T22:06:57.568Z,100639.25
2017-06-11T22:09:29.908Z,100645.40
2017-06-11T22:12:02.252Z,100643.63
2017-06-11T22:14:34.596Z,100636.37
2017-06-11T22:17:06.891Z,100654.63
2017-06-11T22:19:39.288Z,100662.67
2017-06-11T22:22:11.513Z,100670.38
2017-06-11T22:24:44.140Z,100671.56
2017-06-11T22:27:16.139Z,100670.38
2017-06-11T22:29:48.571Z,100672.71
2017-06-11T22:32:21.120Z,100670.57
2017-06-11T22:34:53.539Z,100667.93
2017-06-11T22:37:26.831Z,100672.96
2017-06-11T22:39:59.450Z,100679.48
2017-06-11T22:42:31.801Z,100672.19
2017-06-11T22:45:04.055Z,100670.48
2017-06-11T22:47:36.384Z,100667.34
2017-06-11T22:50:08.782Z,100678.22
2017-06-11T22:52:42.192Z,100671.09
2017-06-11T22:55:14.587Z,100668.12
2017-06-11T22:57:47.030Z,100665.14
2017-06-11T23:00:19.435Z,100657.28
2017-06-11T23:02:51.714Z,100661.29
2017-06-11T23:05:24.251Z,100669.58
2017-06-11T23:07:56.543Z,100662.16
2017-06-11T23:10:28.835Z,100660.14
2017-06-11T23:13:01.310Z,100657.91
2017-06-11T23:15:33.758Z,100658.09
2017-06-11T23:18:06.108Z,100660.05
2017-06-11T23:20:38.556Z,100658.78
2017-06-11T23:23:10.819Z,100660.48
2017-06-11T23:25:43.252Z,100649.77
2017-06-11T23:28:15.659Z,100645.92
2017-06-11T23:30:48.686Z,100646.20
2017-06-11T23:33:21.259Z,100645.61
2017-06-11T23:35:53.655Z,100644.61
2017-06-11T23:38:25.849Z,100644.08
2017-06-11T23:40:58.268Z,100642.83
2017-06-11T23:43:31.636Z,100636.01
2017-06-11T23:46:04.031Z,100633.13
2017-06-11T23:48:36.447Z,100641.40
2017-06-11T23:51:09.143Z,100636.27
2017-06-11T23:53:41.508Z,100641.48
2017-06-11T23:56:13.562Z,100637.85
2017-06-11T23:58:45.955Z,100640.57
